TAF Text Data
IDs:
Format:
Raw Decoded Include METAR

Data at: 1045 UTC 07 Dec 2022

KPIE 070523Z 0706/0806 VRB03KT P6SM FEW040
  FM071500 08006KT P6SM SCT050 SCT250
  FM072100 34006KT P6SM SCT050 SCT250
  FM080100 VRB03KT P6SM FEW040